• Join FlightAware (Why Join?)
  • Login
  • US Flag 
09:30PM EDT


 

Airport Tracker/Info


-or-


 

Live Flight TrackerFlight Track Log ✈ ASQ6115 ✈ 01-May-2013 ✈ CYOW - KIAD

Flight Track Log - Related Links

Times and Time Zones

All times are in EDT time to prevent confusion due to time zone crossing. See the ASQ6115 flight status page for this flight to view local times or setup timezone preferences in your user account.

Time Position Orientation Groundspeed Altitude Reporting Facility
EDT Latitude Longitude Course Direction KTS MPH feet Rate Location/Type
02:35PM 45.2833 -75.7000 200° South 160 184 2,700  Level Montreal Center
02:36PM 45.2500 -75.7833 240° Southwest 200 230 4,900 2,100 Climbing Montreal Center
02:37PM 45.1833 -75.7833 180° South 230 265 6,900 1,920 Climbing Montreal Center
02:38PM 45.1167 -75.7500 161° South 260 299 8,800 1,800 Climbing Montreal Center
02:39PM 45.0333 -75.7500 180° South 300 345 10,500 1,560 Climbing Montreal Center
02:40PM 44.5997 -75.9002 200° South  Level FlightAware Approximate
02:40PM 44.9500 -75.7500 180° South 330 380 12,000  Level Montreal Center
02:41PM 44.8500 -75.8000 200° South 350 403 13,700 1,620 Climbing Montreal Center
02:42PM 44.7667 -75.8500 203° Southwest 350 403 15,300 1,500 Climbing Montreal Center
02:43PM 44.6667 -75.8667 187° South 370 426 16,700 1,380 Climbing Montreal Center
02:44PM 44.5667 -75.9167 200° South 380 437 18,100 1,260 Climbing Montreal Center
02:45PM 44.4667 -75.9667 200° South 380 437 19,300 1,260 Climbing Montreal Center
02:46PM 44.3500 -76.0167 197° South 390 449 20,700 1,380 Climbing Montreal Center
02:47PM 44.2500 -76.0333 187° South 390 449 22,100 1,440 Climbing Montreal Center
02:48PM 44.1333 -76.0333 180° South 400 460 23,600 1,500 Climbing Montreal Center
02:49PM 44.0333 -76.0333 180° South 400 460 25,100 1,500 Climbing Montreal Center
02:50PM 43.9167 -76.0667 192° South 400 460 26,600 1,440 Climbing Montreal Center
02:51PM 43.8000 -76.0833 186° South 400 460 28,000 1,440 Climbing Montreal Center
02:52PM 43.7000 -76.1000 187° South 400 460 29,500 960 Climbing Montreal Center
02:53PM 43.5833 -76.1333 192° South 400 460 30,000 240 Climbing Montreal Center
02:54PM 43.4500 -76.1500 185° South 440 506 30,000  Level Montreal Center
02:55PM 43.3333 -76.1833 192° South 460 529 30,000  Level Montreal Center
02:56PM 43.2244 -76.1958 185° South 467 537 30,000  Level Boston Center
02:58PM 43.0278 -76.3169 204° Southwest 484 557 30,000  Level Cleveland Center
02:59PM 42.8378 -76.4722 211° Southwest 478 550 30,000  Level New York Center
03:00PM 42.7228 -76.5667 211° Southwest 484 557 30,000  Level New York Center
03:01PM 42.6081 -76.6578 210° Southwest 484 557 30,000  Level New York Center
03:02PM 42.4953 -76.7517 212° Southwest 484 557 30,000  Level New York Center
03:03PM 42.3803 -76.8422 210° Southwest 489 563 30,000  Level New York Center
03:04PM 42.2672 -76.9356 211° Southwest 489 563 30,000 -60 Level New York Center
03:05PM 42.1542 -77.0283 211° Southwest 489 563 29,900 -540 Descending New York Center
03:06PM 42.0392 -77.1153 209° Southwest 484 557 29,000 -900 Descending New York Center
03:07PM 41.9433 -77.1925 211° Southwest 479 551 28,200 -540 Descending New York Center
03:08PM 41.8369 -77.2769 211° Southwest 464 534 28,000 -120 Descending New York Center
03:09PM 41.7278 -77.3636 211° Southwest 464 534 28,000  Level New York Center
03:10PM 41.6167 -77.4525 211° Southwest 464 534 28,000  Level New York Center
03:11PM 41.5033 -77.5439 211° Southwest 474 545 28,000  Level New York Center
03:12PM 41.3792 -77.6364 209° Southwest 479 551 28,000 -540 Level New York Center
03:13PM 41.2633 -77.7269 210° Southwest 479 551 27,000 -1,200 Descending New York Center
03:14PM 41.1500 -77.8144 210° Southwest 479 551 25,600 -1,020 Descending New York Center
03:15PM 41.0406 -77.8994 210° Southwest 479 551 25,000 -600 Descending New York Center
03:16PM 40.9192 -77.9417 195° South 447 514 24,500 -1,320 Descending New York Center
03:17PM 40.8106 -77.8781 156° South 429 494 22,500 -1,800 Descending New York Center
03:18PM 40.7164 -77.7781 141° Southeast 398 458 20,900 -1,620 Descending New York Center
03:19PM 40.6281 -77.6842 141° Southeast 398 458 19,300 -1,440 Descending New York Center
03:20PM 40.5356 -77.5931 143° Southeast 417 480 18,000 -720 Descending New York Center
03:21PM 40.4511 -77.5028 141° Southeast 404 465 18,000  Level New York Center
03:22PM 40.3683 -77.4183 142° Southeast 398 458 18,000 -840 Level New York Center
03:23PM 40.2917 -77.3347 140° Southeast 370 426 16,300 -1,620 Descending New York Center
03:25PM 40.1500 -77.1833 141° Southeast 341 392 13,500 -1,200 Descending Potomac TRACON
03:26PM 40.0833 -77.1167 143° Southeast 342 394 13,000 -300 Descending Potomac TRACON
03:27PM 39.9833 -77.1333 187° South 341 392 13,000  Level Potomac TRACON
03:28PM 39.9000 -77.1667 197° South 345 397 13,000 -120 Level Potomac TRACON
03:29PM 39.8000 -77.2000 194° South 343 395 12,800 -1,020 Descending Potomac TRACON
03:30PM 39.7167 -77.2667 212° Southwest 329 379 11,000 -1,440 Descending Potomac TRACON
03:31PM 39.6500 -77.3167 210° Southwest 308 354 10,000 -1,020 Descending Potomac TRACON
03:32PM 39.5667 -77.3833 212° Southwest 272 313 8,900 -1,080 Descending Potomac TRACON
03:33PM 39.5167 -77.4333 218° Southwest 242 278 7,900 -1,020 Descending Potomac TRACON
03:34PM 39.4667 -77.4500 194° South 228 262 7,000 -900 Descending Potomac TRACON
03:35PM 39.4000 -77.4500 180° South 230 265 6,100 -960 Descending Potomac TRACON
03:36PM 39.3333 -77.4500 180° South 225 259 5,100 -600 Descending Potomac TRACON
03:37PM 39.2667 -77.4500 180° South 221 254 5,000 -60 Descending Potomac TRACON
03:38PM 39.2167 -77.4500 180° South 225 259 5,000 -600 Level Potomac TRACON
03:39PM 39.1500 -77.4500 180° South 226 260 3,900 -1,200 Descending Potomac TRACON
03:40PM 39.0833 -77.4500 180° South 209 241 2,700 -1,140 Descending Potomac TRACON
03:41PM 39.0333 -77.4500 180° South 176 203 1,700 -900 Descending Potomac TRACON
03:42PM 39.0000 -77.4667 201° Southwest 131 151 900 -840 Descending Potomac TRACON
03:44PM 38.9474 -77.4599 169° South  Level Estimated
03:51PM 38.9474 -77.4599 169° South  Level Estimated
03:52PM 38.9474 -77.4599 169° South  Level Estimated
03:53PM 38.9474 -77.4599 169° South  Level Estimated
03:54PM 38.9474 -77.4599 169° South  Level Estimated